Estación Meteorológica Peña el Pijo (Robertgarden) [ 12/11/19 23:07:00 CET ]

Fecha Hora Presion(HPa) Temp (°C) Humedad % Rocio (°C) Viento ( m/s) Direccion Lluvia 1Hora(mm) Lluvia 24H(mm) LLuvia Total(mm)
2019-Dec-02 01:01:51 999.700 5.0 79 1.6         37.81
2019-Dec-02 02:10:12 999.400 5.1 80 1.9         37.81
2019-Dec-02 03:05:11 999.300 4.8 81 1.8         37.81
2019-Dec-02 04:01:55 999.700 5.3 82 2.4         37.81
2019-Dec-02 05:01:46 999.400 5.6 82 2.7         37.81
2019-Dec-02 06:01:51 999.300 5.3 84 2.8     0.51 0.51 38.33
2019-Dec-02 07:01:59 999.700 5.2 85 2.8     1.03 1.55 39.36
2019-Dec-02 08:01:47 999.900 5.2 86 3.0     0.51 2.07 39.88
2019-Dec-02 09:01:50 1000.600 5.5 87 3.5       2.07 39.88
2019-Dec-02 10:01:48 1001.000 5.6 88 3.8       2.07 39.88
2019-Dec-02 11:01:39 1001.700 5.9 89 4.2       2.07 39.88
2019-Dec-02 12:01:42 1001.700 6.4 90 4.9       2.07 39.88
2019-Dec-02 13:01:47 1001.400 6.7 90 5.2       2.07 39.88
2019-Dec-02 14:01:42 1000.900 6.6 89 4.9       2.07 39.88
2019-Dec-02 15:01:48 1001.100 6.6 90 5.1 2.3 S   2.07 39.88
2019-Dec-02 16:01:54 1001.100 6.9 90 5.4       2.07 39.88
2019-Dec-02 17:02:04 1001.300 6.7 90 5.2       2.07 39.88
2019-Dec-02 18:01:38 1001.600 6.6 91 5.2       2.07 39.88
2019-Dec-02 19:01:48 1001.900 6.6 91 5.2       2.07 39.88
2019-Dec-02 20:01:48 1002.600 6.7 91 5.3       2.07 39.88
2019-Dec-02 21:01:57 1003.000 6.8 92 5.6       2.07 39.88
2019-Dec-02 22:01:41 1003.400 6.6 92 5.4       2.07 39.88
2019-Dec-02 23:01:50 1003.200 6.5 92 5.3       2.07 39.88

Temperatura Máxima:    Temperatura Mínima:
Presión Máxima:1003.400 Hpa    Presión Mínima:999.300 Hpa


Volver